Live aus Altenrhein
LIVE
LSZR 221950Z AUTO 09004KT 1800 BR OVC003 SCT120 M06/M06 Q1024

People´s Info Center:

Öffnungszeiten Mo-Fr, 8-18 Uhr

 

info@peoples.ch

 
Aus Österreich:

T: +43 (0)5572 203 610

 

Aus CH / LI / DE:

T: +41 (0)71 858 51 60

 

Webcam Flughafen St.Gallen-Altenrhein

Live-Bilder und Zeitraffer LSZR / ACH.

 

Live aus Altenrhein
LIVE
LSZR 221950Z AUTO 09004KT 1800 BR OVC003 SCT120 M06/M06 Q1024
Zeitraffer heute
2017-01-22 00:14:53
LSZR 212250Z AUTO 09004KT 0550 R10/1500N FZFG VV002 M07/M07 Q1027
Zeitraffer gestern
2017-01-21 00:00:01
LSZR 202250Z AUTO 10004KT 3300 BR OVC006 M07/M08 Q1031
Zeitraffer vor 3 Tagen
2017-01-19 00:14:59
LSZR 182250Z AUTO 10004KT 5000 NSC M11/M12 Q1030